sensor_id;sensor_type;location;lat;lon;timestamp;P1;durP1;ratioP1;P2;durP2;ratioP2
13343;SDS011;6741;48.964;9.406;2023-04-24T00:01:11;0.80;;;0.80;;
13343;SDS011;6741;48.964;9.406;2023-04-24T00:03:38;1.37;;;1.10;;
13343;SDS011;6741;48.964;9.406;2023-04-24T00:06:06;1.23;;;1.00;;
13343;SDS011;6741;48.964;9.406;2023-04-24T00:08:33;1.40;;;1.30;;
13343;SDS011;6741;48.964;9.406;2023-04-24T00:11:01;3.70;;;1.00;;
13343;SDS011;6741;48.964;9.406;2023-04-24T00:13:29;0.90;;;0.90;;
13343;SDS011;6741;48.964;9.406;2023-04-24T00:15:56;0.90;;;0.90;;
13343;SDS011;6741;48.964;9.406;2023-04-24T00:18:23;0.73;;;0.60;;
13343;SDS011;6741;48.964;9.406;2023-04-24T00:20:50;0.97;;;0.90;;
13343;SDS011;6741;48.964;9.406;2023-04-24T00:23:17;3.47;;;1.10;;
13343;SDS011;6741;48.964;9.406;2023-04-24T00:25:44;0.90;;;0.90;;
13343;SDS011;6741;48.964;9.406;2023-04-24T00:28:11;2.67;;;1.17;;
13343;SDS011;6741;48.964;9.406;2023-04-24T00:30:39;1.17;;;1.07;;
13343;SDS011;6741;48.964;9.406;2023-04-24T00:33:06;1.97;;;0.83;;
13343;SDS011;6741;48.964;9.406;2023-04-24T00:35:34;0.77;;;0.77;;
13343;SDS011;6741;48.964;9.406;2023-04-24T00:38:01;1.10;;;1.00;;
13343;SDS011;6741;48.964;9.406;2023-04-24T00:40:28;0.80;;;0.80;;
13343;SDS011;6741;48.964;9.406;2023-04-24T00:42:55;2.37;;;0.93;;
13343;SDS011;6741;48.964;9.406;2023-04-24T00:45:22;0.77;;;0.60;;
13343;SDS011;6741;48.964;9.406;2023-04-24T00:47:50;2.27;;;1.20;;
13343;SDS011;6741;48.964;9.406;2023-04-24T00:50:20;1.77;;;0.90;;
13343;SDS011;6741;48.964;9.406;2023-04-24T00:52:47;0.90;;;0.63;;
13343;SDS011;6741;48.964;9.406;2023-04-24T00:55:14;0.97;;;0.97;;
13343;SDS011;6741;48.964;9.406;2023-04-24T00:57:41;1.67;;;0.97;;
13343;SDS011;6741;48.964;9.406;2023-04-24T01:00:09;2.20;;;0.97;;
13343;SDS011;6741;48.964;9.406;2023-04-24T01:02:37;1.17;;;0.80;;
13343;SDS011;6741;48.964;9.406;2023-04-24T01:05:10;1.57;;;0.80;;
13343;SDS011;6741;48.964;9.406;2023-04-24T01:07:38;1.00;;;0.83;;
13343;SDS011;6741;48.964;9.406;2023-04-24T01:10:09;2.03;;;0.97;;
13343;SDS011;6741;48.964;9.406;2023-04-24T01:12:37;2.00;;;1.10;;
13343;SDS011;6741;48.964;9.406;2023-04-24T01:15:04;1.00;;;0.90;;
13343;SDS011;6741;48.964;9.406;2023-04-24T01:17:32;0.97;;;0.80;;
13343;SDS011;6741;48.964;9.406;2023-04-24T01:20:00;0.90;;;0.90;;
13343;SDS011;6741;48.964;9.406;2023-04-24T01:22:32;1.70;;;1.10;;
13343;SDS011;6741;48.964;9.406;2023-04-24T01:24:59;1.40;;;1.20;;
13343;SDS011;6741;48.964;9.406;2023-04-24T01:27:26;1.13;;;0.90;;
13343;SDS011;6741;48.964;9.406;2023-04-24T01:29:53;1.20;;;0.77;;
13343;SDS011;6741;48.964;9.406;2023-04-24T01:32:20;0.77;;;0.70;;
13343;SDS011;6741;48.964;9.406;2023-04-24T01:34:48;0.70;;;0.70;;
13343;SDS011;6741;48.964;9.406;2023-04-24T01:37:15;2.50;;;0.93;;
13343;SDS011;6741;48.964;9.406;2023-04-24T01:39:44;1.37;;;0.87;;
13343;SDS011;6741;48.964;9.406;2023-04-24T01:42:11;1.30;;;0.90;;
13343;SDS011;6741;48.964;9.406;2023-04-24T01:44:39;1.67;;;1.00;;
13343;SDS011;6741;48.964;9.406;2023-04-24T01:47:07;1.60;;;0.90;;
13343;SDS011;6741;48.964;9.406;2023-04-24T01:49:34;2.87;;;1.13;;
13343;SDS011;6741;48.964;9.406;2023-04-24T01:52:01;0.97;;;0.90;;
13343;SDS011;6741;48.964;9.406;2023-04-24T01:54:27;0.57;;;0.57;;
13343;SDS011;6741;48.964;9.406;2023-04-24T01:56:56;2.13;;;0.80;;
13343;SDS011;6741;48.964;9.406;2023-04-24T01:59:23;1.37;;;0.93;;
13343;SDS011;6741;48.964;9.406;2023-04-24T02:01:51;1.50;;;0.60;;
13343;SDS011;6741;48.964;9.406;2023-04-24T02:04:18;0.67;;;0.60;;
13343;SDS011;6741;48.964;9.406;2023-04-24T02:06:45;1.27;;;1.00;;
13343;SDS011;6741;48.964;9.406;2023-04-24T02:09:12;1.47;;;0.90;;
13343;SDS011;6741;48.964;9.406;2023-04-24T02:11:39;1.00;;;0.87;;
13343;SDS011;6741;48.964;9.406;2023-04-24T02:14:07;0.93;;;0.93;;
13343;SDS011;6741;48.964;9.406;2023-04-24T02:16:34;1.83;;;0.80;;
13343;SDS011;6741;48.964;9.406;2023-04-24T02:19:01;1.20;;;0.93;;
13343;SDS011;6741;48.964;9.406;2023-04-24T02:21:28;2.10;;;0.90;;
13343;SDS011;6741;48.964;9.406;2023-04-24T02:23:55;1.40;;;0.77;;
13343;SDS011;6741;48.964;9.406;2023-04-24T02:26:22;2.33;;;1.10;;
13343;SDS011;6741;48.964;9.406;2023-04-24T02:28:49;2.10;;;0.70;;
13343;SDS011;6741;48.964;9.406;2023-04-24T02:31:19;1.07;;;0.80;;
13343;SDS011;6741;48.964;9.406;2023-04-24T02:33:47;1.37;;;0.90;;
13343;SDS011;6741;48.964;9.406;2023-04-24T02:36:14;0.73;;;0.73;;
13343;SDS011;6741;48.964;9.406;2023-04-24T02:38:41;0.63;;;0.63;;
13343;SDS011;6741;48.964;9.406;2023-04-24T02:41:08;1.03;;;0.93;;
13343;SDS011;6741;48.964;9.406;2023-04-24T02:43:34;0.60;;;0.60;;
13343;SDS011;6741;48.964;9.406;2023-04-24T02:46:01;0.83;;;0.83;;
13343;SDS011;6741;48.964;9.406;2023-04-24T02:48:30;0.80;;;0.50;;
13343;SDS011;6741;48.964;9.406;2023-04-24T02:50:57;2.03;;;0.93;;
13343;SDS011;6741;48.964;9.406;2023-04-24T02:53:23;0.80;;;0.70;;
13343;SDS011;6741;48.964;9.406;2023-04-24T02:55:50;0.97;;;0.80;;
13343;SDS011;6741;48.964;9.406;2023-04-24T02:58:17;0.70;;;0.70;;
13343;SDS011;6741;48.964;9.406;2023-04-24T03:00:45;2.47;;;0.80;;
13343;SDS011;6741;48.964;9.406;2023-04-24T03:03:12;1.13;;;0.60;;
13343;SDS011;6741;48.964;9.406;2023-04-24T03:05:41;1.00;;;0.50;;
13343;SDS011;6741;48.964;9.406;2023-04-24T03:08:08;0.70;;;0.50;;
13343;SDS011;6741;48.964;9.406;2023-04-24T03:10:36;0.80;;;0.80;;
13343;SDS011;6741;48.964;9.406;2023-04-24T03:13:03;1.27;;;0.97;;
13343;SDS011;6741;48.964;9.406;2023-04-24T03:15:30;2.30;;;0.90;;
13343;SDS011;6741;48.964;9.406;2023-04-24T03:17:57;2.33;;;0.67;;
13343;SDS011;6741;48.964;9.406;2023-04-24T03:20:25;1.10;;;0.97;;
13343;SDS011;6741;48.964;9.406;2023-04-24T03:22:54;1.37;;;0.80;;
13343;SDS011;6741;48.964;9.406;2023-04-24T03:25:21;0.80;;;0.80;;
13343;SDS011;6741;48.964;9.406;2023-04-24T03:27:48;2.40;;;1.20;;
13343;SDS011;6741;48.964;9.406;2023-04-24T03:30:15;0.80;;;0.80;;
13343;SDS011;6741;48.964;9.406;2023-04-24T03:32:42;1.40;;;0.80;;
13343;SDS011;6741;48.964;9.406;2023-04-24T03:35:09;2.00;;;1.07;;
13343;SDS011;6741;48.964;9.406;2023-04-24T03:37:36;1.07;;;0.93;;
13343;SDS011;6741;48.964;9.406;2023-04-24T03:40:05;1.60;;;1.00;;
13343;SDS011;6741;48.964;9.406;2023-04-24T03:42:33;1.57;;;1.00;;
13343;SDS011;6741;48.964;9.406;2023-04-24T03:45:00;1.67;;;0.83;;
13343;SDS011;6741;48.964;9.406;2023-04-24T03:47:27;0.60;;;0.60;;
13343;SDS011;6741;48.964;9.406;2023-04-24T03:49:58;0.80;;;0.80;;
13343;SDS011;6741;48.964;9.406;2023-04-24T03:52:25;3.47;;;1.00;;
13343;SDS011;6741;48.964;9.406;2023-04-24T03:54:52;2.40;;;1.00;;
13343;SDS011;6741;48.964;9.406;2023-04-24T03:57:20;1.23;;;1.10;;
13343;SDS011;6741;48.964;9.406;2023-04-24T03:59:47;1.63;;;1.03;;
13343;SDS011;6741;48.964;9.406;2023-04-24T04:02:14;1.20;;;1.10;;
13343;SDS011;6741;48.964;9.406;2023-04-24T04:04:41;1.00;;;0.90;;
13343;SDS011;6741;48.964;9.406;2023-04-24T04:07:08;1.10;;;1.00;;
13343;SDS011;6741;48.964;9.406;2023-04-24T04:09:38;1.43;;;1.10;;
13343;SDS011;6741;48.964;9.406;2023-04-24T04:12:05;1.27;;;0.90;;
13343;SDS011;6741;48.964;9.406;2023-04-24T04:14:33;1.33;;;1.00;;
13343;SDS011;6741;48.964;9.406;2023-04-24T04:17:00;2.13;;;0.97;;
13343;SDS011;6741;48.964;9.406;2023-04-24T04:19:27;1.30;;;1.20;;
13343;SDS011;6741;48.964;9.406;2023-04-24T04:21:54;1.57;;;0.90;;
13343;SDS011;6741;48.964;9.406;2023-04-24T04:24:21;0.73;;;0.73;;
13343;SDS011;6741;48.964;9.406;2023-04-24T04:26:49;1.50;;;0.97;;
13343;SDS011;6741;48.964;9.406;2023-04-24T04:29:16;2.10;;;1.10;;
13343;SDS011;6741;48.964;9.406;2023-04-24T04:31:45;1.73;;;1.00;;
13343;SDS011;6741;48.964;9.406;2023-04-24T04:34:12;1.40;;;0.80;;
13343;SDS011;6741;48.964;9.406;2023-04-24T04:36:40;1.43;;;1.00;;
13343;SDS011;6741;48.964;9.406;2023-04-24T04:39:08;3.40;;;1.27;;
13343;SDS011;6741;48.964;9.406;2023-04-24T04:41:35;1.40;;;1.10;;
13343;SDS011;6741;48.964;9.406;2023-04-24T04:44:02;1.30;;;1.20;;
13343;SDS011;6741;48.964;9.406;2023-04-24T04:46:30;0.97;;;0.80;;
13343;SDS011;6741;48.964;9.406;2023-04-24T04:49:00;1.33;;;1.23;;
13343;SDS011;6741;48.964;9.406;2023-04-24T04:51:28;2.37;;;1.43;;
13343;SDS011;6741;48.964;9.406;2023-04-24T04:53:55;1.50;;;1.40;;
13343;SDS011;6741;48.964;9.406;2023-04-24T04:56:22;1.40;;;1.30;;
13343;SDS011;6741;48.964;9.406;2023-04-24T04:58:48;2.37;;;1.03;;
13343;SDS011;6741;48.964;9.406;2023-04-24T05:01:15;1.50;;;1.40;;
13343;SDS011;6741;48.964;9.406;2023-04-24T05:03:42;1.40;;;1.30;;
13343;SDS011;6741;48.964;9.406;2023-04-24T05:06:11;1.33;;;1.30;;
13343;SDS011;6741;48.964;9.406;2023-04-24T05:08:38;1.60;;;1.50;;
13343;SDS011;6741;48.964;9.406;2023-04-24T05:11:05;1.70;;;1.40;;
13343;SDS011;6741;48.964;9.406;2023-04-24T05:13:32;2.70;;;1.43;;
13343;SDS011;6741;48.964;9.406;2023-04-24T05:15:59;2.60;;;1.50;;
13343;SDS011;6741;48.964;9.406;2023-04-24T05:18:26;1.87;;;1.70;;
13343;SDS011;6741;48.964;9.406;2023-04-24T05:20:53;3.60;;;1.50;;
13343;SDS011;6741;48.964;9.406;2023-04-24T05:23:22;3.40;;;2.00;;
13343;SDS011;6741;48.964;9.406;2023-04-24T05:25:49;2.63;;;1.60;;
13343;SDS011;6741;48.964;9.406;2023-04-24T05:28:16;2.37;;;2.00;;
13343;SDS011;6741;48.964;9.406;2023-04-24T05:30:42;2.07;;;1.83;;
13343;SDS011;6741;48.964;9.406;2023-04-24T05:33:09;4.47;;;2.57;;
13343;SDS011;6741;48.964;9.406;2023-04-24T05:35:36;3.87;;;2.20;;
13343;SDS011;6741;48.964;9.406;2023-04-24T05:38:03;2.70;;;2.30;;
13343;SDS011;6741;48.964;9.406;2023-04-24T05:40:31;5.10;;;2.90;;
13343;SDS011;6741;48.964;9.406;2023-04-24T05:42:58;4.67;;;3.07;;
13343;SDS011;6741;48.964;9.406;2023-04-24T05:45:25;2.30;;;2.10;;
13343;SDS011;6741;48.964;9.406;2023-04-24T05:47:52;2.67;;;2.07;;
13343;SDS011;6741;48.964;9.406;2023-04-24T05:50:20;2.40;;;2.13;;
13343;SDS011;6741;48.964;9.406;2023-04-24T05:52:47;3.27;;;2.10;;
13343;SDS011;6741;48.964;9.406;2023-04-24T05:55:14;2.53;;;2.33;;
13343;SDS011;6741;48.964;9.406;2023-04-24T05:57:44;3.93;;;2.40;;
13343;SDS011;6741;48.964;9.406;2023-04-24T06:00:12;3.47;;;2.30;;
13343;SDS011;6741;48.964;9.406;2023-04-24T06:02:40;6.60;;;2.90;;
13343;SDS011;6741;48.964;9.406;2023-04-24T06:05:07;4.63;;;2.60;;
13343;SDS011;6741;48.964;9.406;2023-04-24T06:07:34;2.90;;;2.40;;
13343;SDS011;6741;48.964;9.406;2023-04-24T06:10:01;3.97;;;2.57;;
13343;SDS011;6741;48.964;9.406;2023-04-24T06:12:28;3.30;;;3.00;;
13343;SDS011;6741;48.964;9.406;2023-04-24T06:14:57;3.97;;;2.80;;
13343;SDS011;6741;48.964;9.406;2023-04-24T06:17:23;2.70;;;2.50;;
13343;SDS011;6741;48.964;9.406;2023-04-24T06:19:50;2.87;;;2.50;;
13343;SDS011;6741;48.964;9.406;2023-04-24T06:22:17;3.33;;;3.00;;
13343;SDS011;6741;48.964;9.406;2023-04-24T06:24:44;3.50;;;3.20;;
13343;SDS011;6741;48.964;9.406;2023-04-24T06:27:12;2.93;;;2.63;;
13343;SDS011;6741;48.964;9.406;2023-04-24T06:29:39;3.17;;;2.90;;
13343;SDS011;6741;48.964;9.406;2023-04-24T06:32:07;4.33;;;2.60;;
13343;SDS011;6741;48.964;9.406;2023-04-24T06:34:34;3.77;;;2.90;;
13343;SDS011;6741;48.964;9.406;2023-04-24T06:37:01;4.20;;;3.17;;
13343;SDS011;6741;48.964;9.406;2023-04-24T06:39:28;3.73;;;3.37;;
13343;SDS011;6741;48.964;9.406;2023-04-24T06:41:55;3.47;;;3.17;;
13343;SDS011;6741;48.964;9.406;2023-04-24T06:44:22;3.07;;;2.77;;
13343;SDS011;6741;48.964;9.406;2023-04-24T06:46:49;2.67;;;2.47;;
13343;SDS011;6741;48.964;9.406;2023-04-24T06:49:17;3.27;;;2.87;;
13343;SDS011;6741;48.964;9.406;2023-04-24T06:51:45;3.53;;;2.20;;
13343;SDS011;6741;48.964;9.406;2023-04-24T06:54:12;2.57;;;2.37;;
13343;SDS011;6741;48.964;9.406;2023-04-24T06:56:38;2.97;;;2.50;;
13343;SDS011;6741;48.964;9.406;2023-04-24T06:59:05;2.03;;;1.93;;
13343;SDS011;6741;48.964;9.406;2023-04-24T07:01:32;3.43;;;2.27;;
13343;SDS011;6741;48.964;9.406;2023-04-24T07:03:59;2.10;;;1.90;;
13343;SDS011;6741;48.964;9.406;2023-04-24T07:06:27;2.87;;;2.50;;
13343;SDS011;6741;48.964;9.406;2023-04-24T07:08:56;2.40;;;2.20;;
13343;SDS011;6741;48.964;9.406;2023-04-24T07:11:23;3.47;;;2.37;;
13343;SDS011;6741;48.964;9.406;2023-04-24T07:13:54;2.40;;;2.20;;
13343;SDS011;6741;48.964;9.406;2023-04-24T07:16:21;2.50;;;2.30;;
13343;SDS011;6741;48.964;9.406;2023-04-24T07:18:48;3.53;;;2.13;;
13343;SDS011;6741;48.964;9.406;2023-04-24T07:21:15;2.60;;;2.40;;
13343;SDS011;6741;48.964;9.406;2023-04-24T07:23:43;2.30;;;2.10;;
13343;SDS011;6741;48.964;9.406;2023-04-24T07:26:10;2.83;;;2.63;;
13343;SDS011;6741;48.964;9.406;2023-04-24T07:28:37;3.80;;;2.63;;
13343;SDS011;6741;48.964;9.406;2023-04-24T07:31:04;4.03;;;2.10;;
13343;SDS011;6741;48.964;9.406;2023-04-24T07:33:31;2.73;;;2.40;;
13343;SDS011;6741;48.964;9.406;2023-04-24T07:35:58;2.83;;;2.47;;
13343;SDS011;6741;48.964;9.406;2023-04-24T07:38:25;3.10;;;2.30;;
13343;SDS011;6741;48.964;9.406;2023-04-24T07:40:54;3.93;;;2.80;;
13343;SDS011;6741;48.964;9.406;2023-04-24T07:43:21;3.37;;;2.50;;
13343;SDS011;6741;48.964;9.406;2023-04-24T07:45:48;2.40;;;2.20;;
13343;SDS011;6741;48.964;9.406;2023-04-24T07:48:15;2.53;;;2.07;;
13343;SDS011;6741;48.964;9.406;2023-04-24T07:50:43;2.20;;;1.80;;
13343;SDS011;6741;48.964;9.406;2023-04-24T07:53:10;2.17;;;2.07;;
13343;SDS011;6741;48.964;9.406;2023-04-24T07:55:37;3.60;;;2.10;;
13343;SDS011;6741;48.964;9.406;2023-04-24T07:58:05;3.10;;;1.80;;
13343;SDS011;6741;48.964;9.406;2023-04-24T08:00:32;2.70;;;1.87;;
13343;SDS011;6741;48.964;9.406;2023-04-24T08:02:59;1.83;;;1.73;;
13343;SDS011;6741;48.964;9.406;2023-04-24T08:05:26;3.03;;;1.93;;
13343;SDS011;6741;48.964;9.406;2023-04-24T08:07:53;4.03;;;2.10;;
13343;SDS011;6741;48.964;9.406;2023-04-24T08:10:20;2.83;;;2.10;;
13343;SDS011;6741;48.964;9.406;2023-04-24T08:12:47;2.63;;;1.63;;
13343;SDS011;6741;48.964;9.406;2023-04-24T08:15:16;2.30;;;2.10;;
13343;SDS011;6741;48.964;9.406;2023-04-24T08:17:43;3.17;;;1.90;;
13343;SDS011;6741;48.964;9.406;2023-04-24T08:20:10;2.03;;;1.93;;
13343;SDS011;6741;48.964;9.406;2023-04-24T08:22:38;2.93;;;1.70;;
13343;SDS011;6741;48.964;9.406;2023-04-24T08:25:06;2.13;;;1.80;;
13343;SDS011;6741;48.964;9.406;2023-04-24T08:27:33;1.97;;;1.80;;
13343;SDS011;6741;48.964;9.406;2023-04-24T08:30:01;2.53;;;1.50;;
13343;SDS011;6741;48.964;9.406;2023-04-24T08:32:30;1.70;;;1.53;;
13343;SDS011;6741;48.964;9.406;2023-04-24T08:34:57;3.73;;;1.30;;
13343;SDS011;6741;48.964;9.406;2023-04-24T08:37:25;1.53;;;1.43;;
13343;SDS011;6741;48.964;9.406;2023-04-24T08:39:52;3.07;;;1.50;;
13343;SDS011;6741;48.964;9.406;2023-04-24T08:42:19;3.17;;;1.40;;
13343;SDS011;6741;48.964;9.406;2023-04-24T08:44:48;1.50;;;1.40;;
13343;SDS011;6741;48.964;9.406;2023-04-24T08:47:15;2.30;;;1.20;;
13343;SDS011;6741;48.964;9.406;2023-04-24T08:49:43;1.50;;;1.17;;
13343;SDS011;6741;48.964;9.406;2023-04-24T08:52:13;6.67;;;1.40;;
13343;SDS011;6741;48.964;9.406;2023-04-24T08:54:41;3.47;;;1.53;;
13343;SDS011;6741;48.964;9.406;2023-04-24T08:57:10;6.07;;;1.60;;
13343;SDS011;6741;48.964;9.406;2023-04-24T08:59:40;2.50;;;1.27;;
13343;SDS011;6741;48.964;9.406;2023-04-24T09:02:08;2.53;;;1.30;;
13343;SDS011;6741;48.964;9.406;2023-04-24T09:04:37;2.53;;;1.20;;
13343;SDS011;6741;48.964;9.406;2023-04-24T09:07:06;2.53;;;1.17;;
13343;SDS011;6741;48.964;9.406;2023-04-24T09:09:34;1.20;;;1.07;;
13343;SDS011;6741;48.964;9.406;2023-04-24T09:12:02;1.43;;;1.10;;
13343;SDS011;6741;48.964;9.406;2023-04-24T09:14:29;16.07;;;1.77;;
13343;SDS011;6741;48.964;9.406;2023-04-24T09:16:57;1.77;;;1.27;;
13343;SDS011;6741;48.964;9.406;2023-04-24T09:19:24;1.83;;;1.30;;
13343;SDS011;6741;48.964;9.406;2023-04-24T09:21:51;1.30;;;1.20;;
13343;SDS011;6741;48.964;9.406;2023-04-24T09:24:21;1.60;;;1.30;;
13343;SDS011;6741;48.964;9.406;2023-04-24T09:26:48;2.40;;;1.30;;
13343;SDS011;6741;48.964;9.406;2023-04-24T09:29:23;1.30;;;1.20;;
13343;SDS011;6741;48.964;9.406;2023-04-24T09:31:50;2.33;;;1.50;;
13343;SDS011;6741;48.964;9.406;2023-04-24T09:34:20;2.30;;;1.73;;
13343;SDS011;6741;48.964;9.406;2023-04-24T09:36:48;2.20;;;1.60;;
13343;SDS011;6741;48.964;9.406;2023-04-24T09:39:16;3.93;;;1.60;;
13343;SDS011;6741;48.964;9.406;2023-04-24T09:41:48;1.33;;;1.23;;
13343;SDS011;6741;48.964;9.406;2023-04-24T09:44:16;1.27;;;1.17;;
13343;SDS011;6741;48.964;9.406;2023-04-24T09:46:45;4.07;;;1.80;;
13343;SDS011;6741;48.964;9.406;2023-04-24T09:49:17;2.23;;;1.70;;
13343;SDS011;6741;48.964;9.406;2023-04-24T09:51:48;1.57;;;1.40;;
13343;SDS011;6741;48.964;9.406;2023-04-24T09:54:16;1.87;;;1.77;;
13343;SDS011;6741;48.964;9.406;2023-04-24T09:56:45;1.63;;;1.53;;
13343;SDS011;6741;48.964;9.406;2023-04-24T09:59:14;1.30;;;1.20;;
13343;SDS011;6741;48.964;9.406;2023-04-24T10:01:42;3.70;;;1.20;;
13343;SDS011;6741;48.964;9.406;2023-04-24T10:04:17;1.17;;;1.03;;
13343;SDS011;6741;48.964;9.406;2023-04-24T10:06:45;1.10;;;1.00;;
13343;SDS011;6741;48.964;9.406;2023-04-24T10:09:14;1.80;;;1.03;;
13343;SDS011;6741;48.964;9.406;2023-04-24T10:11:41;1.83;;;1.17;;
13343;SDS011;6741;48.964;9.406;2023-04-24T10:14:12;1.63;;;1.10;;
13343;SDS011;6741;48.964;9.406;2023-04-24T10:16:40;2.00;;;1.67;;
13343;SDS011;6741;48.964;9.406;2023-04-24T10:19:07;2.37;;;1.30;;
13343;SDS011;6741;48.964;9.406;2023-04-24T10:21:34;3.00;;;1.27;;
13343;SDS011;6741;48.964;9.406;2023-04-24T10:24:03;1.30;;;1.20;;
13343;SDS011;6741;48.964;9.406;2023-04-24T10:26:32;2.40;;;1.40;;
13343;SDS011;6741;48.964;9.406;2023-04-24T10:29:00;4.07;;;1.50;;
13343;SDS011;6741;48.964;9.406;2023-04-24T10:31:31;2.27;;;1.60;;
13343;SDS011;6741;48.964;9.406;2023-04-24T10:33:58;1.53;;;1.43;;
13343;SDS011;6741;48.964;9.406;2023-04-24T10:36:27;1.50;;;1.40;;
13343;SDS011;6741;48.964;9.406;2023-04-24T10:38:57;2.17;;;1.70;;
13343;SDS011;6741;48.964;9.406;2023-04-24T10:41:26;2.03;;;1.60;;
13343;SDS011;6741;48.964;9.406;2023-04-24T10:44:06;2.33;;;1.43;;
13343;SDS011;6741;48.964;9.406;2023-04-24T10:46:35;2.93;;;1.43;;
13343;SDS011;6741;48.964;9.406;2023-04-24T10:49:03;1.80;;;1.70;;
13343;SDS011;6741;48.964;9.406;2023-04-24T10:51:44;4.87;;;1.93;;
13343;SDS011;6741;48.964;9.406;2023-04-24T10:54:22;2.27;;;2.07;;
13343;SDS011;6741;48.964;9.406;2023-04-24T10:56:50;2.00;;;1.87;;
13343;SDS011;6741;48.964;9.406;2023-04-24T10:59:24;2.43;;;2.00;;
13343;SDS011;6741;48.964;9.406;2023-04-24T11:01:56;2.33;;;2.00;;
13343;SDS011;6741;48.964;9.406;2023-04-24T11:04:29;3.87;;;2.17;;
13343;SDS011;6741;48.964;9.406;2023-04-24T11:06:57;2.07;;;1.90;;
13343;SDS011;6741;48.964;9.406;2023-04-24T11:09:26;3.00;;;2.07;;
13343;SDS011;6741;48.964;9.406;2023-04-24T11:12:02;2.07;;;1.97;;
13343;SDS011;6741;48.964;9.406;2023-04-24T11:14:35;1.80;;;1.70;;
13343;SDS011;6741;48.964;9.406;2023-04-24T11:17:29;2.20;;;2.00;;
13343;SDS011;6741;48.964;9.406;2023-04-24T11:20:00;1.90;;;1.80;;
13343;SDS011;6741;48.964;9.406;2023-04-24T11:22:28;2.03;;;1.70;;
13343;SDS011;6741;48.964;9.406;2023-04-24T11:24:59;1.93;;;1.80;;
13343;SDS011;6741;48.964;9.406;2023-04-24T11:27:28;3.03;;;2.10;;
13343;SDS011;6741;48.964;9.406;2023-04-24T11:29:58;2.23;;;1.87;;
13343;SDS011;6741;48.964;9.406;2023-04-24T11:32:28;2.37;;;2.00;;
13343;SDS011;6741;48.964;9.406;2023-04-24T11:34:57;3.73;;;1.60;;
13343;SDS011;6741;48.964;9.406;2023-04-24T11:37:26;2.33;;;1.80;;
13343;SDS011;6741;48.964;9.406;2023-04-24T11:39:54;1.53;;;1.43;;
13343;SDS011;6741;48.964;9.406;2023-04-24T11:42:22;1.90;;;1.57;;
13343;SDS011;6741;48.964;9.406;2023-04-24T11:44:51;3.17;;;1.70;;
13343;SDS011;6741;48.964;9.406;2023-04-24T11:47:19;3.67;;;1.93;;
13343;SDS011;6741;48.964;9.406;2023-04-24T11:49:49;1.80;;;1.60;;
13343;SDS011;6741;48.964;9.406;2023-04-24T11:52:16;1.60;;;1.50;;
13343;SDS011;6741;48.964;9.406;2023-04-24T11:54:47;2.13;;;1.70;;
13343;SDS011;6741;48.964;9.406;2023-04-24T11:57:15;2.40;;;1.70;;
13343;SDS011;6741;48.964;9.406;2023-04-24T11:59:42;2.50;;;2.30;;
13343;SDS011;6741;48.964;9.406;2023-04-24T12:02:09;2.10;;;2.00;;
13343;SDS011;6741;48.964;9.406;2023-04-24T12:04:48;4.63;;;2.57;;
13343;SDS011;6741;48.964;9.406;2023-04-24T12:07:15;2.33;;;1.93;;
13343;SDS011;6741;48.964;9.406;2023-04-24T12:09:42;1.90;;;1.80;;
13343;SDS011;6741;48.964;9.406;2023-04-24T12:12:10;3.43;;;2.20;;
13343;SDS011;6741;48.964;9.406;2023-04-24T12:14:42;2.13;;;2.00;;
13343;SDS011;6741;48.964;9.406;2023-04-24T12:17:23;2.20;;;2.00;;
13343;SDS011;6741;48.964;9.406;2023-04-24T12:19:57;2.70;;;2.47;;
13343;SDS011;6741;48.964;9.406;2023-04-24T12:22:26;3.50;;;2.40;;
13343;SDS011;6741;48.964;9.406;2023-04-24T12:24:57;2.97;;;2.77;;
13343;SDS011;6741;48.964;9.406;2023-04-24T12:27:25;2.70;;;2.50;;
13343;SDS011;6741;48.964;9.406;2023-04-24T12:29:53;4.40;;;2.50;;
13343;SDS011;6741;48.964;9.406;2023-04-24T12:32:21;2.70;;;2.50;;
13343;SDS011;6741;48.964;9.406;2023-04-24T12:34:50;2.77;;;2.57;;
13343;SDS011;6741;48.964;9.406;2023-04-24T12:37:18;3.10;;;2.50;;
13343;SDS011;6741;48.964;9.406;2023-04-24T12:39:58;4.53;;;2.40;;
13343;SDS011;6741;48.964;9.406;2023-04-24T12:42:27;2.50;;;2.30;;
13343;SDS011;6741;48.964;9.406;2023-04-24T12:44:57;2.57;;;2.37;;
13343;SDS011;6741;48.964;9.406;2023-04-24T12:47:26;2.40;;;2.20;;
13343;SDS011;6741;48.964;9.406;2023-04-24T12:49:54;2.67;;;2.47;;
13343;SDS011;6741;48.964;9.406;2023-04-24T12:52:22;4.10;;;3.03;;
13343;SDS011;6741;48.964;9.406;2023-04-24T12:54:52;2.37;;;2.17;;
13343;SDS011;6741;48.964;9.406;2023-04-24T12:57:20;2.33;;;2.13;;
13343;SDS011;6741;48.964;9.406;2023-04-24T12:59:49;2.30;;;2.07;;
13343;SDS011;6741;48.964;9.406;2023-04-24T13:02:16;2.47;;;2.27;;
13343;SDS011;6741;48.964;9.406;2023-04-24T13:04:44;2.47;;;2.27;;
13343;SDS011;6741;48.964;9.406;2023-04-24T13:07:12;2.40;;;2.20;;
13343;SDS011;6741;48.964;9.406;2023-04-24T13:09:41;3.17;;;2.90;;
13343;SDS011;6741;48.964;9.406;2023-04-24T13:12:09;2.67;;;2.47;;
13343;SDS011;6741;48.964;9.406;2023-04-24T13:14:38;3.13;;;2.60;;
13343;SDS011;6741;48.964;9.406;2023-04-24T13:17:05;3.27;;;3.00;;
13343;SDS011;6741;48.964;9.406;2023-04-24T13:19:35;4.90;;;3.30;;
13343;SDS011;6741;48.964;9.406;2023-04-24T13:22:03;3.07;;;2.77;;
13343;SDS011;6741;48.964;9.406;2023-04-24T13:24:30;4.00;;;2.93;;
13343;SDS011;6741;48.964;9.406;2023-04-24T13:26:59;2.70;;;2.50;;
13343;SDS011;6741;48.964;9.406;2023-04-24T13:29:26;4.97;;;3.10;;
13343;SDS011;6741;48.964;9.406;2023-04-24T13:31:53;3.83;;;3.13;;
13343;SDS011;6741;48.964;9.406;2023-04-24T13:34:21;3.43;;;3.10;;
13343;SDS011;6741;48.964;9.406;2023-04-24T13:36:48;3.40;;;3.10;;
13343;SDS011;6741;48.964;9.406;2023-04-24T13:39:16;4.43;;;3.07;;
13343;SDS011;6741;48.964;9.406;2023-04-24T13:41:43;3.63;;;3.33;;
13343;SDS011;6741;48.964;9.406;2023-04-24T13:44:13;3.67;;;3.37;;
13343;SDS011;6741;48.964;9.406;2023-04-24T13:46:41;4.57;;;3.57;;
13343;SDS011;6741;48.964;9.406;2023-04-24T13:49:09;5.30;;;3.50;;
13343;SDS011;6741;48.964;9.406;2023-04-24T13:51:36;3.47;;;3.17;;
13343;SDS011;6741;48.964;9.406;2023-04-24T13:54:03;3.70;;;3.40;;
13343;SDS011;6741;48.964;9.406;2023-04-24T13:56:30;3.50;;;3.13;;
13343;SDS011;6741;48.964;9.406;2023-04-24T13:58:57;3.63;;;2.70;;
13343;SDS011;6741;48.964;9.406;2023-04-24T14:01:25;4.40;;;3.50;;
13343;SDS011;6741;48.964;9.406;2023-04-24T14:03:52;3.10;;;2.80;;
13343;SDS011;6741;48.964;9.406;2023-04-24T14:06:20;4.30;;;3.00;;
13343;SDS011;6741;48.964;9.406;2023-04-24T14:08:48;5.97;;;2.97;;
13343;SDS011;6741;48.964;9.406;2023-04-24T14:11:15;3.37;;;3.10;;
13343;SDS011;6741;48.964;9.406;2023-04-24T14:13:43;7.60;;;3.90;;
13343;SDS011;6741;48.964;9.406;2023-04-24T14:16:10;3.90;;;3.60;;
13343;SDS011;6741;48.964;9.406;2023-04-24T14:18:38;3.47;;;2.87;;
13343;SDS011;6741;48.964;9.406;2023-04-24T14:21:05;3.13;;;2.77;;
13343;SDS011;6741;48.964;9.406;2023-04-24T14:23:32;3.27;;;2.83;;
13343;SDS011;6741;48.964;9.406;2023-04-24T14:25:59;2.90;;;2.70;;
13343;SDS011;6741;48.964;9.406;2023-04-24T14:28:26;3.60;;;3.30;;
13343;SDS011;6741;48.964;9.406;2023-04-24T14:30:53;3.73;;;3.43;;
13343;SDS011;6741;48.964;9.406;2023-04-24T14:33:20;2.93;;;2.73;;
13343;SDS011;6741;48.964;9.406;2023-04-24T14:35:49;3.07;;;2.77;;
13343;SDS011;6741;48.964;9.406;2023-04-24T14:38:16;2.73;;;2.53;;
13343;SDS011;6741;48.964;9.406;2023-04-24T14:40:43;3.20;;;2.63;;
13343;SDS011;6741;48.964;9.406;2023-04-24T14:43:10;2.83;;;2.63;;
13343;SDS011;6741;48.964;9.406;2023-04-24T14:45:37;2.40;;;2.20;;
13343;SDS011;6741;48.964;9.406;2023-04-24T14:48:05;2.53;;;2.33;;
13343;SDS011;6741;48.964;9.406;2023-04-24T14:50:33;2.53;;;2.33;;
13343;SDS011;6741;48.964;9.406;2023-04-24T14:53:02;5.27;;;3.00;;
13343;SDS011;6741;48.964;9.406;2023-04-24T14:55:30;2.23;;;1.90;;
13343;SDS011;6741;48.964;9.406;2023-04-24T14:57:59;2.90;;;2.70;;
13343;SDS011;6741;48.964;9.406;2023-04-24T15:00:25;3.00;;;2.80;;
13343;SDS011;6741;48.964;9.406;2023-04-24T15:02:52;3.47;;;3.17;;
13343;SDS011;6741;48.964;9.406;2023-04-24T15:05:20;2.90;;;2.50;;